sensor_id;sensor_type;location;lat;lon;timestamp;pressure;altitude;pressure_sealevel;temperature;humidity
13434;BME280;6789;47.678;9.158;2023-08-31T00:02:50;96301.84;;;15.58;95.05
13434;BME280;6789;47.678;9.158;2023-08-31T00:07:42;96296.81;;;15.62;94.22
13434;BME280;6789;47.678;9.158;2023-08-31T00:12:33;96304.50;;;15.68;92.67
13434;BME280;6789;47.678;9.158;2023-08-31T00:17:25;96311.06;;;15.90;88.38
13434;BME280;6789;47.678;9.158;2023-08-31T00:22:17;96306.78;;;16.09;86.53
13434;BME280;6789;47.678;9.158;2023-08-31T00:27:09;96314.69;;;16.24;85.06
13434;BME280;6789;47.678;9.158;2023-08-31T00:32:02;96307.81;;;16.23;85.47
13434;BME280;6789;47.678;9.158;2023-08-31T00:36:53;96322.38;;;16.36;83.83
13434;BME280;6789;47.678;9.158;2023-08-31T00:41:45;96322.00;;;16.62;83.27
13434;BME280;6789;47.678;9.158;2023-08-31T00:46:37;96320.69;;;16.59;84.49
13434;BME280;6789;47.678;9.158;2023-08-31T00:51:29;96315.41;;;16.54;85.23
13434;BME280;6789;47.678;9.158;2023-08-31T00:56:22;96332.09;;;16.50;87.31
13434;BME280;6789;47.678;9.158;2023-08-31T01:01:39;96327.13;;;16.34;88.63
13434;BME280;6789;47.678;9.158;2023-08-31T01:07:06;96338.78;;;16.23;89.69
13434;BME280;6789;47.678;9.158;2023-08-31T01:12:09;96339.59;;;16.13;91.12
13434;BME280;6789;47.678;9.158;2023-08-31T01:17:03;96349.09;;;16.09;91.52
13434;BME280;6789;47.678;9.158;2023-08-31T01:22:00;96344.88;;;15.98;92.05
13434;BME280;6789;47.678;9.158;2023-08-31T01:26:55;96335.91;;;15.99;91.67
13434;BME280;6789;47.678;9.158;2023-08-31T01:31:47;96348.88;;;15.96;92.39
13434;BME280;6789;47.678;9.158;2023-08-31T01:36:47;96353.38;;;16.00;92.05
13434;BME280;6789;47.678;9.158;2023-08-31T01:41:51;96352.56;;;15.95;92.42
13434;BME280;6789;47.678;9.158;2023-08-31T01:46:53;96357.09;;;15.89;93.80
13434;BME280;6789;47.678;9.158;2023-08-31T01:51:48;96363.69;;;15.82;94.32
13434;BME280;6789;47.678;9.158;2023-08-31T01:56:39;96359.19;;;15.82;94.90
13434;BME280;6789;47.678;9.158;2023-08-31T02:01:32;96354.97;;;15.81;94.58
13434;BME280;6789;47.678;9.158;2023-08-31T02:06:24;96360.00;;;15.78;95.71
13434;BME280;6789;47.678;9.158;2023-08-31T02:11:16;96364.47;;;15.72;95.82
13434;BME280;6789;47.678;9.158;2023-08-31T02:16:08;96367.66;;;15.84;95.38
13434;BME280;6789;47.678;9.158;2023-08-31T02:21:00;96375.06;;;15.82;95.37
13434;BME280;6789;47.678;9.158;2023-08-31T02:25:51;96377.72;;;15.87;94.94
13434;BME280;6789;47.678;9.158;2023-08-31T02:30:45;96386.19;;;15.70;96.53
13434;BME280;6789;47.678;9.158;2023-08-31T02:35:37;96379.81;;;15.61;97.46
13434;BME280;6789;47.678;9.158;2023-08-31T02:40:29;96388.28;;;15.53;97.92
13434;BME280;6789;47.678;9.158;2023-08-31T02:45:21;96389.84;;;15.49;97.96
13434;BME280;6789;47.678;9.158;2023-08-31T02:50:13;96397.28;;;15.52;98.49
13434;BME280;6789;47.678;9.158;2023-08-31T02:55:05;96399.13;;;15.71;96.65
13434;BME280;6789;47.678;9.158;2023-08-31T02:59:57;96395.16;;;15.64;97.38
13434;BME280;6789;47.678;9.158;2023-08-31T03:04:48;96403.59;;;15.61;98.04
13434;BME280;6789;47.678;9.158;2023-08-31T03:09:41;96397.25;;;15.57;98.92
13434;BME280;6789;47.678;9.158;2023-08-31T03:14:33;96398.84;;;15.58;99.14
13434;BME280;6789;47.678;9.158;2023-08-31T03:19:27;96400.72;;;15.62;98.85
13434;BME280;6789;47.678;9.158;2023-08-31T03:24:19;96402.81;;;15.75;97.37
13434;BME280;6789;47.678;9.158;2023-08-31T03:29:10;96392.78;;;15.67;98.24
13434;BME280;6789;47.678;9.158;2023-08-31T03:34:02;96398.84;;;15.63;98.48
13434;BME280;6789;47.678;9.158;2023-08-31T03:38:54;96388.28;;;15.53;100.00
13434;BME280;6789;47.678;9.158;2023-08-31T03:43:46;96393.28;;;15.44;100.00
13434;BME280;6789;47.678;9.158;2023-08-31T03:48:37;96391.97;;;15.52;100.00
13434;BME280;6789;47.678;9.158;2023-08-31T03:53:33;96413.13;;;15.57;100.00
13434;BME280;6789;47.678;9.158;2023-08-31T03:58:31;96426.63;;;15.60;100.00
13434;BME280;6789;47.678;9.158;2023-08-31T04:03:23;96451.69;;;15.38;100.00
13434;BME280;6789;47.678;9.158;2023-08-31T04:08:16;96441.59;;;15.25;100.00
13434;BME280;6789;47.678;9.158;2023-08-31T04:13:08;96452.16;;;15.25;100.00
13434;BME280;6789;47.678;9.158;2023-08-31T04:18:01;96438.09;;;15.14;100.00
13434;BME280;6789;47.678;9.158;2023-08-31T04:22:53;96430.41;;;15.08;100.00
13434;BME280;6789;47.678;9.158;2023-08-31T04:27:45;96438.84;;;15.00;100.00
13434;BME280;6789;47.678;9.158;2023-08-31T04:32:37;96443.84;;;14.97;100.00
13434;BME280;6789;47.678;9.158;2023-08-31T04:37:29;96453.84;;;14.90;100.00
13434;BME280;6789;47.678;9.158;2023-08-31T04:42:21;96457.78;;;14.82;100.00
13434;BME280;6789;47.678;9.158;2023-08-31T04:47:13;96456.72;;;14.78;100.00
13434;BME280;6789;47.678;9.158;2023-08-31T04:52:06;96475.94;;;14.74;100.00
13434;BME280;6789;47.678;9.158;2023-08-31T04:56:58;96464.03;;;14.66;100.00
13434;BME280;6789;47.678;9.158;2023-08-31T05:01:50;96481.44;;;14.67;100.00
13434;BME280;6789;47.678;9.158;2023-08-31T05:06:42;96469.31;;;14.66;100.00
13434;BME280;6789;47.678;9.158;2023-08-31T05:11:34;96476.69;;;14.64;100.00
13434;BME280;6789;47.678;9.158;2023-08-31T05:16:26;96485.09;;;14.61;100.00
13434;BME280;6789;47.678;9.158;2023-08-31T05:21:18;96491.50;;;14.70;100.00
13434;BME280;6789;47.678;9.158;2023-08-31T05:26:10;96489.16;;;14.79;100.00
13434;BME280;6789;47.678;9.158;2023-08-31T05:31:02;96490.53;;;14.86;100.00
13434;BME280;6789;47.678;9.158;2023-08-31T05:36:01;96489.25;;;14.94;100.00
13434;BME280;6789;47.678;9.158;2023-08-31T05:41:04;96500.91;;;15.02;100.00
13434;BME280;6789;47.678;9.158;2023-08-31T05:46:13;96509.69;;;15.18;100.00
13434;BME280;6789;47.678;9.158;2023-08-31T05:51:06;96512.31;;;15.13;100.00
13434;BME280;6789;47.678;9.158;2023-08-31T05:56:00;96518.16;;;15.15;100.00
13434;BME280;6789;47.678;9.158;2023-08-31T06:00:55;96533.47;;;15.18;100.00
13434;BME280;6789;47.678;9.158;2023-08-31T06:05:48;96529.06;;;15.33;100.00
13434;BME280;6789;47.678;9.158;2023-08-31T06:10:39;96526.69;;;15.32;100.00
13434;BME280;6789;47.678;9.158;2023-08-31T06:15:31;96532.00;;;15.42;100.00
13434;BME280;6789;47.678;9.158;2023-08-31T06:20:23;96531.53;;;15.60;99.92
13434;BME280;6789;47.678;9.158;2023-08-31T06:25:15;96541.91;;;15.76;97.91
13434;BME280;6789;47.678;9.158;2023-08-31T06:30:10;96549.59;;;15.82;96.72
13434;BME280;6789;47.678;9.158;2023-08-31T06:35:07;96555.72;;;15.93;99.02
13434;BME280;6789;47.678;9.158;2023-08-31T06:39:59;96566.84;;;16.10;97.69
13434;BME280;6789;47.678;9.158;2023-08-31T06:44:51;96556.81;;;16.96;95.05
13434;BME280;6789;47.678;9.158;2023-08-31T06:49:43;96565.47;;;17.41;91.10
13434;BME280;6789;47.678;9.158;2023-08-31T06:54:35;96573.44;;;17.41;88.90
13434;BME280;6789;47.678;9.158;2023-08-31T06:59:26;96573.97;;;17.33;88.63
13434;BME280;6789;47.678;9.158;2023-08-31T07:04:18;96573.97;;;17.33;88.93
13434;BME280;6789;47.678;9.158;2023-08-31T07:09:10;96580.75;;;17.64;88.73
13434;BME280;6789;47.678;9.158;2023-08-31T07:14:02;96579.59;;;17.95;85.70
13434;BME280;6789;47.678;9.158;2023-08-31T07:18:54;96581.03;;;18.21;85.80
13434;BME280;6789;47.678;9.158;2023-08-31T07:23:46;96583.59;;;18.36;83.17
13434;BME280;6789;47.678;9.158;2023-08-31T07:28:38;96571.19;;;18.60;81.35
13434;BME280;6789;47.678;9.158;2023-08-31T07:33:31;96575.41;;;18.65;79.40
13434;BME280;6789;47.678;9.158;2023-08-31T07:38:24;96595.03;;;19.03;77.75
13434;BME280;6789;47.678;9.158;2023-08-31T07:43:16;96597.13;;;18.72;75.83
13434;BME280;6789;47.678;9.158;2023-08-31T07:48:07;96592.19;;;18.94;76.05
13434;BME280;6789;47.678;9.158;2023-08-31T07:52:59;96598.59;;;18.88;74.24
13434;BME280;6789;47.678;9.158;2023-08-31T07:57:51;96618.97;;;19.31;75.55
13434;BME280;6789;47.678;9.158;2023-08-31T08:02:44;96615.34;;;19.69;72.73
13434;BME280;6789;47.678;9.158;2023-08-31T08:07:36;96626.69;;;19.56;71.37
13434;BME280;6789;47.678;9.158;2023-08-31T08:12:37;96634.34;;;19.34;71.83
13434;BME280;6789;47.678;9.158;2023-08-31T08:17:30;96641.25;;;19.63;70.07
13434;BME280;6789;47.678;9.158;2023-08-31T08:22:21;96643.72;;;19.55;69.56
13434;BME280;6789;47.678;9.158;2023-08-31T08:27:13;96645.38;;;20.21;69.60
13434;BME280;6789;47.678;9.158;2023-08-31T08:32:05;96652.00;;;20.42;65.97
13434;BME280;6789;47.678;9.158;2023-08-31T08:36:58;96654.47;;;20.75;66.14
13434;BME280;6789;47.678;9.158;2023-08-31T08:41:50;96667.66;;;20.85;65.75
13434;BME280;6789;47.678;9.158;2023-08-31T08:46:46;96658.97;;;20.56;65.66
13434;BME280;6789;47.678;9.158;2023-08-31T08:51:39;96674.13;;;20.61;65.16
13434;BME280;6789;47.678;9.158;2023-08-31T08:56:32;96669.22;;;20.49;64.44
13434;BME280;6789;47.678;9.158;2023-08-31T09:01:25;96681.97;;;20.52;66.39
13434;BME280;6789;47.678;9.158;2023-08-31T09:06:17;96684.19;;;20.45;65.03
13434;BME280;6789;47.678;9.158;2023-08-31T09:11:19;96681.59;;;20.59;65.63
13434;BME280;6789;47.678;9.158;2023-08-31T09:16:28;96685.06;;;20.59;65.80
13434;BME280;6789;47.678;9.158;2023-08-31T09:21:21;96687.03;;;20.72;66.61
13434;BME280;6789;47.678;9.158;2023-08-31T09:26:13;96689.56;;;21.00;64.08
13434;BME280;6789;47.678;9.158;2023-08-31T09:31:08;96686.72;;;21.10;61.08
13434;BME280;6789;47.678;9.158;2023-08-31T09:36:00;96685.53;;;21.35;61.16
13434;BME280;6789;47.678;9.158;2023-08-31T09:41:06;96688.13;;;21.85;54.13
13434;BME280;6789;47.678;9.158;2023-08-31T09:46:00;96693.16;;;21.86;50.59
13434;BME280;6789;47.678;9.158;2023-08-31T09:50:55;96681.47;;;21.82;50.85
13434;BME280;6789;47.678;9.158;2023-08-31T09:55:48;96696.63;;;21.42;52.08
13434;BME280;6789;47.678;9.158;2023-08-31T10:00:40;96697.47;;;20.87;55.38
13434;BME280;6789;47.678;9.158;2023-08-31T10:05:32;96692.78;;;20.97;53.27
13434;BME280;6789;47.678;9.158;2023-08-31T10:10:28;96692.00;;;20.60;50.57
13434;BME280;6789;47.678;9.158;2023-08-31T10:15:22;96694.25;;;20.90;53.48
13434;BME280;6789;47.678;9.158;2023-08-31T10:20:18;96683.34;;;21.55;51.00
13434;BME280;6789;47.678;9.158;2023-08-31T10:25:10;96677.13;;;21.41;48.28
13434;BME280;6789;47.678;9.158;2023-08-31T10:35:13;96688.63;;;20.73;51.10
13434;BME280;6789;47.678;9.158;2023-08-31T10:40:10;96684.38;;;21.22;51.48
13434;BME280;6789;47.678;9.158;2023-08-31T10:45:06;96682.97;;;21.43;50.79
13434;BME280;6789;47.678;9.158;2023-08-31T10:50:24;96686.97;;;21.27;49.77
13434;BME280;6789;47.678;9.158;2023-08-31T10:55:16;96684.25;;;21.14;51.61
13434;BME280;6789;47.678;9.158;2023-08-31T11:00:08;96682.16;;;21.61;50.37
13434;BME280;6789;47.678;9.158;2023-08-31T11:05:07;96670.81;;;21.82;51.63
13434;BME280;6789;47.678;9.158;2023-08-31T11:10:18;96681.41;;;22.01;51.43
13434;BME280;6789;47.678;9.158;2023-08-31T11:15:13;96677.22;;;21.68;50.02
13434;BME280;6789;47.678;9.158;2023-08-31T11:20:07;96669.59;;;21.61;51.09
13434;BME280;6789;47.678;9.158;2023-08-31T11:25:00;96673.78;;;21.36;51.17
13434;BME280;6789;47.678;9.158;2023-08-31T11:29:52;96686.59;;;20.65;52.38
13434;BME280;6789;47.678;9.158;2023-08-31T11:34:45;96679.94;;;20.44;54.57
13434;BME280;6789;47.678;9.158;2023-08-31T11:39:37;96670.16;;;20.58;54.24
13434;BME280;6789;47.678;9.158;2023-08-31T11:44:31;96670.53;;;20.52;53.42
13434;BME280;6789;47.678;9.158;2023-08-31T11:49:47;96665.69;;;20.72;52.46
13434;BME280;6789;47.678;9.158;2023-08-31T11:54:43;96665.88;;;21.44;49.70
13434;BME280;6789;47.678;9.158;2023-08-31T11:59:50;96665.56;;;22.04;48.77
13434;BME280;6789;47.678;9.158;2023-08-31T12:04:45;96678.53;;;21.97;49.42
13434;BME280;6789;47.678;9.158;2023-08-31T12:09:37;96668.53;;;21.89;49.40
13434;BME280;6789;47.678;9.158;2023-08-31T12:14:30;96680.81;;;21.90;49.39
13434;BME280;6789;47.678;9.158;2023-08-31T12:19:27;96678.25;;;21.85;50.01
13434;BME280;6789;47.678;9.158;2023-08-31T12:24:20;96671.47;;;22.15;50.27
13434;BME280;6789;47.678;9.158;2023-08-31T12:29:14;96671.22;;;22.16;49.43
13434;BME280;6789;47.678;9.158;2023-08-31T12:34:07;96667.34;;;22.22;49.34
13434;BME280;6789;47.678;9.158;2023-08-31T12:38:59;96666.91;;;22.55;48.91
13434;BME280;6789;47.678;9.158;2023-08-31T12:43:53;96667.50;;;22.66;48.15
13434;BME280;6789;47.678;9.158;2023-08-31T12:48:45;96670.63;;;22.81;49.12
13434;BME280;6789;47.678;9.158;2023-08-31T12:53:40;96668.91;;;22.85;48.99
13434;BME280;6789;47.678;9.158;2023-08-31T12:58:32;96661.59;;;23.12;48.87
13434;BME280;6789;47.678;9.158;2023-08-31T13:03:25;96656.88;;;23.09;49.32
13434;BME280;6789;47.678;9.158;2023-08-31T13:08:17;96660.75;;;23.25;49.44
13434;BME280;6789;47.678;9.158;2023-08-31T13:13:09;96665.50;;;23.28;48.93
13434;BME280;6789;47.678;9.158;2023-08-31T13:18:03;96664.72;;;23.36;49.42
13434;BME280;6789;47.678;9.158;2023-08-31T13:22:56;96670.59;;;23.16;49.65
13434;BME280;6789;47.678;9.158;2023-08-31T13:27:48;96659.34;;;23.06;51.08
13434;BME280;6789;47.678;9.158;2023-08-31T13:32:40;96653.88;;;22.98;50.49
13434;BME280;6789;47.678;9.158;2023-08-31T13:37:32;96652.91;;;22.94;49.86
13434;BME280;6789;47.678;9.158;2023-08-31T13:42:25;96648.84;;;22.96;49.42
13434;BME280;6789;47.678;9.158;2023-08-31T13:47:17;96653.09;;;22.75;49.84
13434;BME280;6789;47.678;9.158;2023-08-31T13:52:11;96659.88;;;22.59;50.09
13434;BME280;6789;47.678;9.158;2023-08-31T13:57:05;96657.69;;;22.61;50.47
13434;BME280;6789;47.678;9.158;2023-08-31T14:01:57;96658.44;;;22.75;49.86
13434;BME280;6789;47.678;9.158;2023-08-31T14:06:49;96659.22;;;22.76;49.50
13434;BME280;6789;47.678;9.158;2023-08-31T14:11:41;96660.03;;;22.98;49.68
13434;BME280;6789;47.678;9.158;2023-08-31T14:16:33;96655.78;;;22.75;49.78
13434;BME280;6789;47.678;9.158;2023-08-31T14:21:26;96661.75;;;22.59;51.06
13434;BME280;6789;47.678;9.158;2023-08-31T14:26:19;96657.25;;;22.68;49.43
13434;BME280;6789;47.678;9.158;2023-08-31T14:31:11;96650.72;;;22.12;50.58
13434;BME280;6789;47.678;9.158;2023-08-31T14:36:04;96650.72;;;22.12;52.60
13434;BME280;6789;47.678;9.158;2023-08-31T14:41:02;96650.53;;;22.35;52.05
13434;BME280;6789;47.678;9.158;2023-08-31T14:45:54;96647.66;;;22.31;52.32
13434;BME280;6789;47.678;9.158;2023-08-31T14:50:46;96646.56;;;22.19;51.87
13434;BME280;6789;47.678;9.158;2023-08-31T14:55:38;96657.84;;;22.29;52.20
13434;BME280;6789;47.678;9.158;2023-08-31T15:00:30;96665.25;;;22.46;52.96
13434;BME280;6789;47.678;9.158;2023-08-31T15:05:22;96660.63;;;22.38;51.79
13434;BME280;6789;47.678;9.158;2023-08-31T15:10:18;96648.41;;;22.45;51.86
13434;BME280;6789;47.678;9.158;2023-08-31T15:15:10;96656.34;;;22.37;51.43
13434;BME280;6789;47.678;9.158;2023-08-31T15:20:06;96653.69;;;22.37;51.43
13434;BME280;6789;47.678;9.158;2023-08-31T15:25:00;96656.66;;;22.35;52.39
13434;BME280;6789;47.678;9.158;2023-08-31T15:29:52;96656.84;;;22.26;52.52
13434;BME280;6789;47.678;9.158;2023-08-31T15:34:45;96663.00;;;22.13;52.73
13434;BME280;6789;47.678;9.158;2023-08-31T15:39:43;96662.00;;;22.09;53.10
13434;BME280;6789;47.678;9.158;2023-08-31T15:44:41;96659.84;;;21.97;53.65
13434;BME280;6789;47.678;9.158;2023-08-31T15:49:33;96675.22;;;21.73;53.74
13434;BME280;6789;47.678;9.158;2023-08-31T15:54:25;96667.69;;;21.49;54.86
13434;BME280;6789;47.678;9.158;2023-08-31T15:59:17;96672.63;;;21.23;54.91
13434;BME280;6789;47.678;9.158;2023-08-31T16:04:17;96669.06;;;21.14;55.35
13434;BME280;6789;47.678;9.158;2023-08-31T16:09:10;96668.84;;;21.11;55.82
13434;BME280;6789;47.678;9.158;2023-08-31T16:14:02;96667.94;;;21.02;56.78
13434;BME280;6789;47.678;9.158;2023-08-31T16:18:54;96668.53;;;20.99;57.83
13434;BME280;6789;47.678;9.158;2023-08-31T16:23:50;96660.66;;;20.89;58.59
13434;BME280;6789;47.678;9.158;2023-08-31T16:28:42;96658.03;;;21.02;58.79
13434;BME280;6789;47.678;9.158;2023-08-31T16:33:34;96664.09;;;21.08;58.18
13434;BME280;6789;47.678;9.158;2023-08-31T16:38:27;96672.88;;;21.08;58.46
13434;BME280;6789;47.678;9.158;2023-08-31T16:43:18;96673.84;;;20.99;58.97
13434;BME280;6789;47.678;9.158;2023-08-31T16:48:11;96676.22;;;20.82;59.58
13434;BME280;6789;47.678;9.158;2023-08-31T16:53:03;96680.41;;;20.70;59.72
13434;BME280;6789;47.678;9.158;2023-08-31T16:57:55;96672.59;;;20.55;61.01
13434;BME280;6789;47.678;9.158;2023-08-31T17:02:49;96660.00;;;20.42;61.82
13434;BME280;6789;47.678;9.158;2023-08-31T17:07:41;96656.19;;;20.29;62.73
13434;BME280;6789;47.678;9.158;2023-08-31T17:12:33;96662.13;;;20.21;63.29
13434;BME280;6789;47.678;9.158;2023-08-31T17:17:25;96654.06;;;20.08;64.27
13434;BME280;6789;47.678;9.158;2023-08-31T17:22:22;96656.91;;;19.93;65.32
13434;BME280;6789;47.678;9.158;2023-08-31T17:27:14;96649.31;;;19.77;66.39
13434;BME280;6789;47.678;9.158;2023-08-31T17:32:06;96646.09;;;19.56;67.29
13434;BME280;6789;47.678;9.158;2023-08-31T17:36:58;96653.97;;;19.43;68.93
13434;BME280;6789;47.678;9.158;2023-08-31T17:41:50;96648.72;;;19.33;69.84
13434;BME280;6789;47.678;9.158;2023-08-31T17:46:42;96653.56;;;19.26;70.12
13434;BME280;6789;47.678;9.158;2023-08-31T17:51:48;96651.06;;;19.11;70.77
13434;BME280;6789;47.678;9.158;2023-08-31T17:56:41;96651.09;;;19.01;71.72
13434;BME280;6789;47.678;9.158;2023-08-31T18:01:33;96645.59;;;18.93;72.18
13434;BME280;6789;47.678;9.158;2023-08-31T18:06:25;96651.53;;;18.85;72.75
13434;BME280;6789;47.678;9.158;2023-08-31T18:11:17;96656.63;;;18.76;74.01
13434;BME280;6789;47.678;9.158;2023-08-31T18:16:11;96663.31;;;18.69;74.30
13434;BME280;6789;47.678;9.158;2023-08-31T18:21:04;96654.81;;;18.67;74.74
13434;BME280;6789;47.678;9.158;2023-08-31T18:25:56;96665.25;;;18.59;75.07
13434;BME280;6789;47.678;9.158;2023-08-31T18:35:55;96673.28;;;18.49;76.22
13434;BME280;6789;47.678;9.158;2023-08-31T18:40:53;96676.22;;;18.42;76.48
13434;BME280;6789;47.678;9.158;2023-08-31T18:45:47;96673.88;;;18.36;77.39
13434;BME280;6789;47.678;9.158;2023-08-31T18:50:40;96687.72;;;18.28;78.36
13434;BME280;6789;47.678;9.158;2023-08-31T18:55:36;96687.75;;;18.23;80.11
13434;BME280;6789;47.678;9.158;2023-08-31T19:00:29;96676.59;;;18.16;79.58
13434;BME280;6789;47.678;9.158;2023-08-31T19:05:29;96691.78;;;18.10;80.79
13434;BME280;6789;47.678;9.158;2023-08-31T19:10:22;96696.31;;;18.05;82.53
13434;BME280;6789;47.678;9.158;2023-08-31T19:15:17;96705.59;;;18.02;83.95
13434;BME280;6789;47.678;9.158;2023-08-31T19:20:09;96710.66;;;17.99;84.83
13434;BME280;6789;47.678;9.158;2023-08-31T19:25:06;96720.75;;;17.92;85.06
13434;BME280;6789;47.678;9.158;2023-08-31T19:29:58;96723.16;;;17.88;85.72
13434;BME280;6789;47.678;9.158;2023-08-31T19:34:52;96716.56;;;17.76;86.90
13434;BME280;6789;47.678;9.158;2023-08-31T19:39:45;96719.22;;;17.76;88.38
13434;BME280;6789;47.678;9.158;2023-08-31T19:44:38;96720.81;;;17.72;89.20
13434;BME280;6789;47.678;9.158;2023-08-31T19:49:48;96719.47;;;17.70;89.93
13434;BME280;6789;47.678;9.158;2023-08-31T19:54:41;96729.31;;;17.69;91.06
13434;BME280;6789;47.678;9.158;2023-08-31T19:59:33;96728.50;;;17.69;91.26
13434;BME280;6789;47.678;9.158;2023-08-31T20:04:25;96733.53;;;17.65;91.62
13434;BME280;6789;47.678;9.158;2023-08-31T20:09:18;96730.38;;;17.58;91.31
13434;BME280;6789;47.678;9.158;2023-08-31T20:14:11;96727.22;;;17.51;93.50
13434;BME280;6789;47.678;9.158;2023-08-31T20:19:03;96732.50;;;17.46;94.02
13434;BME280;6789;47.678;9.158;2023-08-31T20:23:55;96733.56;;;17.40;94.43
13434;BME280;6789;47.678;9.158;2023-08-31T20:28:47;96740.50;;;17.31;94.17
13434;BME280;6789;47.678;9.158;2023-08-31T20:33:40;96733.56;;;17.20;95.46
13434;BME280;6789;47.678;9.158;2023-08-31T20:38:31;96732.25;;;17.23;96.49
13434;BME280;6789;47.678;9.158;2023-08-31T20:43:23;96743.16;;;17.26;97.66
13434;BME280;6789;47.678;9.158;2023-08-31T20:48:15;96750.00;;;17.27;98.33
13434;BME280;6789;47.678;9.158;2023-08-31T20:53:07;96759.53;;;17.23;98.78
13434;BME280;6789;47.678;9.158;2023-08-31T20:58:00;96765.63;;;17.19;99.20
13434;BME280;6789;47.678;9.158;2023-08-31T21:02:52;96769.09;;;17.19;98.86
13434;BME280;6789;47.678;9.158;2023-08-31T21:07:47;96769.88;;;17.15;99.01
13434;BME280;6789;47.678;9.158;2023-08-31T21:12:40;96777.03;;;17.19;99.48
13434;BME280;6789;47.678;9.158;2023-08-31T21:17:32;96772.25;;;17.21;100.00
13434;BME280;6789;47.678;9.158;2023-08-31T21:22:24;96767.50;;;17.18;98.88
13434;BME280;6789;47.678;9.158;2023-08-31T21:27:16;96777.03;;;17.19;98.64
13434;BME280;6789;47.678;9.158;2023-08-31T21:32:07;96777.03;;;17.19;98.78
13434;BME280;6789;47.678;9.158;2023-08-31T21:36:59;96772.00;;;17.23;97.61
13434;BME280;6789;47.678;9.158;2023-08-31T21:41:51;96775.44;;;17.23;96.14
13434;BME280;6789;47.678;9.158;2023-08-31T21:46:43;96769.66;;;17.26;95.17
13434;BME280;6789;47.678;9.158;2023-08-31T21:51:35;96772.81;;;17.28;93.88
13434;BME280;6789;47.678;9.158;2023-08-31T21:56:27;96776.53;;;17.27;93.01
13434;BME280;6789;47.678;9.158;2023-08-31T22:01:18;96779.72;;;17.29;91.95
13434;BME280;6789;47.678;9.158;2023-08-31T22:06:12;96779.19;;;17.32;91.19
13434;BME280;6789;47.678;9.158;2023-08-31T22:11:04;96777.59;;;17.46;90.62
13434;BME280;6789;47.678;9.158;2023-08-31T22:15:58;96774.94;;;17.41;90.54
13434;BME280;6789;47.678;9.158;2023-08-31T22:20:49;96791.41;;;17.43;90.02
13434;BME280;6789;47.678;9.158;2023-08-31T22:25:41;96796.69;;;17.43;89.53
13434;BME280;6789;47.678;9.158;2023-08-31T22:30:33;96808.34;;;17.47;89.55
13434;BME280;6789;47.678;9.158;2023-08-31T22:35:25;96810.50;;;17.50;89.78
13434;BME280;6789;47.678;9.158;2023-08-31T22:40:17;96809.16;;;17.48;88.99
13434;BME280;6789;47.678;9.158;2023-08-31T22:45:10;96810.22;;;17.52;88.03
13434;BME280;6789;47.678;9.158;2023-08-31T22:50:04;96795.63;;;17.49;85.84
13434;BME280;6789;47.678;9.158;2023-08-31T22:55:03;96783.44;;;17.43;85.32
13434;BME280;6789;47.678;9.158;2023-08-31T22:59:55;96785.81;;;17.40;85.69
13434;BME280;6789;47.678;9.158;2023-08-31T23:04:47;96786.59;;;17.40;86.38
13434;BME280;6789;47.678;9.158;2023-08-31T23:09:40;96790.84;;;17.46;86.33
13434;BME280;6789;47.678;9.158;2023-08-31T23:14:32;96792.19;;;17.44;85.72
13434;BME280;6789;47.678;9.158;2023-08-31T23:19:23;96790.06;;;17.41;86.63
13434;BME280;6789;47.678;9.158;2023-08-31T23:24:16;96784.78;;;17.36;86.09
13434;BME280;6789;47.678;9.158;2023-08-31T23:29:08;96787.13;;;17.27;87.35
13434;BME280;6789;47.678;9.158;2023-08-31T23:34:01;96784.44;;;17.22;87.87
13434;BME280;6789;47.678;9.158;2023-08-31T23:38:53;96786.03;;;17.23;88.36
13434;BME280;6789;47.678;9.158;2023-08-31T23:43:45;96786.34;;;17.32;88.10
13434;BME280;6789;47.678;9.158;2023-08-31T23:48:37;96778.66;;;17.30;88.06
13434;BME280;6789;47.678;9.158;2023-08-31T23:53:29;96778.13;;;17.28;88.76
13434;BME280;6789;47.678;9.158;2023-08-31T23:58:20;96776.53;;;17.27;88.43
